Airfield :
LOGIN :

Register | Disclaimer

   EN    FR    IT 

 










Legend :    VFR   Marginal VFR   IFR   Intensive IFR   Very Intensive IFR
Visi :
Ceiling :
>= 8 km
>= 3000ft
5 to 8 km
1000 to 3000 ft
1500m to 5 km
500 to 1000 ft
800 to 1500m
200 to 500 ft
< 800m
< 200 ft
Symbols :   Thunderstorms  Fog  Heavy snow  Heavy precipitations  Wind > 20 kt
SIGMETs :     Misc.  Thunderstorms  Icing  Turbulence  Mountain Waves  Volcanic Ashes






- Airport Elevation : 3 ft
- IATA code : DHR


EHKD - Den Helder De Kooy

CURRENT METAR :
  • 010225Z AUTO 21002KT 9999 OVC027 02/01 Q1025 BLU

EXPIRED METARs :
  • 010155Z AUTO 20003KT 9999 OVC026 02/00 Q1026 BLU
  • 010143Z AUTO 23003KT 190V280 9999 OVC025 01/00 Q1026 BLU
  • 010125Z AUTO VRB02KT 9999 OVC024 01/M00 Q1026 WHT
  • 010055Z AUTO VRB02KT 9999 OVC025 00/M00 Q1026 BLU
  • 010025Z AUTO 21002KT 9999 BKN027 M00/M01 Q1027 BLU
  • 312355Z AUTO 22002KT 9999 NCD M01/M01 Q1027 BLU

TAF TAF EHKD
Valid from the 01 at 01:00 until the 01 at 13:00 UTC


010007Z 0101/0113 24004KT CAVOK
BECMG 0102/0104 SCT022 SCT027
TEMPO 0105/0108 SCT017 SCT025
BECMG 0106/0109 28010KT



MET'MAP, your aeronautical weather chart ! - Copyright ORBIFLY December 2007 - Disclaimer

ORBIFLY MET'MAP TEAM :

Programming & Development : Alexandra Zaïnal
Concept & original design : Baudouin d'Aumeries
Assistance for programming : Marc-Olivier Méhu
Technical & hardware support : Manuel Goepfert

Contact : metmap@orbifly.com




SOURCES & CREDITS :

   NOAA